Time;durP1;ratioP1;P1;durP2;ratioP2;P2;SDS_P1;SDS_P2;PMS_P1;PMS_P2;Temp;Humidity;BMP_temperature;BMP_pressure;BME280_temperature;BME280_humidity;BME280_pressure;Samples;Min_cycle;Max_cycle;Signal;HPM_P1;HPM_P2
2021/07/31 00:09:51;;;;;;;6.03;4.50;;;16.40;99.90;;;;;;20911795;28;20037;-54
2021/07/31 00:19:53;;;;;;;8.27;5.10;;;16.20;99.90;;;;;;20910687;28;20051;-54
2021/07/31 00:29:54;;;;;;;5.38;4.40;;;16.00;99.90;;;;;;20908837;28;20372;-54
2021/07/31 00:39:56;;;;;;;5.32;4.15;;;16.10;99.90;;;;;;20909146;28;20029;-53
2021/07/31 00:49:59;;;;;;;6.20;4.60;;;16.00;99.90;;;;;;20908391;28;20040;-51
2021/07/31 01:00:02;;;;;;;7.55;4.95;;;15.80;99.90;;;;;;20907636;28;20049;-56
2021/07/31 01:10:05;;;;;;;10.05;5.80;;;15.70;99.90;;;;;;20912183;28;20033;-50
2021/07/31 01:20:14;;;;;;;7.63;5.65;;;15.80;99.90;;;;;;20904938;28;20557;-53
2021/07/31 01:30:21;;;;;;;9.57;6.15;;;15.90;99.90;;;;;;20907550;28;20060;-48
2021/07/31 01:40:23;;;;;;;12.40;7.93;;;16.00;99.90;;;;;;20904917;28;20036;-52
2021/07/31 01:50:25;;;;;;;11.73;8.48;;;16.00;99.90;;;;;;20904220;28;20083;-53
2021/07/31 02:00:29;;;;;;;15.60;10.32;;;16.40;99.90;;;;;;20902281;28;20061;-53
2021/07/31 02:10:38;;;;;;;11.27;7.47;;;16.60;99.90;;;;;;20903761;28;20040;-53
2021/07/31 02:20:43;;;;;;;10.23;7.90;;;16.80;99.90;;;;;;20901804;28;20037;-53
2021/07/31 02:31:06;;;;;;;10.75;7.75;;;17.10;99.90;;;;;;20901755;28;20404;-54
2021/07/31 02:41:09;;;;;;;12.48;7.55;;;17.20;99.90;;;;;;20907318;28;20401;-54
2021/07/31 02:51:14;;;;;;;11.20;7.30;;;16.90;99.90;;;;;;20917958;28;20032;-55
2021/07/31 03:01:50;;;;;;;15.75;9.18;;;16.40;99.90;;;;;;20914069;28;20049;-52
2021/07/31 03:11:53;;;;;;;14.50;9.02;;;16.00;99.90;;;;;;20916846;28;20475;-55
2021/07/31 03:21:57;;;;;;;11.90;8.23;;;16.10;99.90;;;;;;20914679;28;20391;-51
2021/07/31 03:32:07;;;;;;;15.05;10.68;;;16.40;99.90;;;;;;20913597;28;20067;-54
2021/07/31 03:42:09;;;;;;;18.25;12.52;;;16.10;99.90;;;;;;20912532;28;20082;-54
2021/07/31 03:52:13;;;;;;;17.20;11.20;;;15.70;99.90;;;;;;20913741;28;20029;-55
2021/07/31 04:02:18;;;;;;;16.27;10.60;;;15.30;99.90;;;;;;20910857;28;20053;-52
2021/07/31 04:12:20;;;;;;;14.05;8.90;;;15.00;99.90;;;;;;20911533;28;20425;-54
2021/07/31 04:22:41;;;;;;;;;;;15.10;99.90;;;;;;20911574;28;20479;-54
2021/07/31 04:32:43;;;;;;;10.27;6.85;;;15.00;99.90;;;;;;20908908;28;19913;-55
2021/07/31 04:42:45;;;;;;;12.43;8.68;;;15.30;99.90;;;;;;20909166;28;20025;-53
2021/07/31 04:52:47;;;;;;;10.80;6.55;;;15.30;99.90;;;;;;20908496;28;20029;-49
2021/07/31 05:02:48;;;;;;;12.20;6.35;;;15.40;99.90;;;;;;20906754;28;20490;-55
2021/07/31 05:12:50;;;;;;;8.90;6.13;;;15.70;99.90;;;;;;20913488;28;20037;-55
2021/07/31 05:22:53;;;;;;;7.97;5.70;;;16.20;99.90;;;;;;20904854;28;20036;-53
2021/07/31 05:32:55;;;;;;;7.28;5.53;;;16.90;99.90;;;;;;20905428;28;20029;-52
2021/07/31 05:42:56;;;;;;;10.65;5.40;;;17.30;99.90;;;;;;20904945;28;20091;-51
2021/07/31 05:52:58;;;;;;;8.15;5.43;;;17.40;99.90;;;;;;20904691;28;20443;-54
2021/07/31 06:03:01;;;;;;;12.52;5.88;;;17.60;99.90;;;;;;20908295;28;20037;-51
2021/07/31 06:13:04;;;;;;;7.97;6.20;;;17.80;99.90;;;;;;20906188;28;20052;-53
2021/07/31 06:23:06;;;;;;;6.90;5.57;;;17.80;99.90;;;;;;20918701;28;20033;-52
2021/07/31 06:33:08;;;;;;;7.05;5.55;;;19.10;99.90;;;;;;20918789;28;20045;-52
2021/07/31 06:43:10;;;;;;;8.15;4.88;;;24.00;99.90;;;;;;20918502;28;20032;-52
2021/07/31 06:53:12;;;;;;;5.35;4.18;;;28.30;98.10;;;;;;20919014;28;20028;-55
2021/07/31 07:03:14;;;;;;;6.47;4.88;;;28.20;98.10;;;;;;20916802;28;20045;-55
2021/07/31 07:13:16;;;;;;;5.53;5.03;;;27.50;94.00;;;;;;20916768;28;20483;-55
2021/07/31 07:23:17;;;;;;;7.13;5.45;;;25.90;96.40;;;;;;20914492;28;20040;-53
2021/07/31 07:33:19;;;;;;;11.40;6.68;;;24.60;99.90;;;;;;20913510;28;20048;-53
2021/07/31 07:43:21;;;;;;;10.63;8.15;;;24.20;99.90;;;;;;20912594;28;20098;-54
2021/07/31 07:53:22;;;;;;;9.48;7.78;;;23.80;99.90;;;;;;20924401;28;20028;-53
2021/07/31 08:03:24;;;;;;;8.85;6.50;;;24.20;99.90;;;;;;20914227;28;20052;-51
2021/07/31 08:13:26;;;;;;;7.47;6.50;;;25.50;99.90;;;;;;20911611;28;20035;-54
2021/07/31 08:23:28;;;;;;;7.75;6.22;;;26.90;98.70;;;;;;20909327;28;20041;-53
2021/07/31 08:33:32;;;;;;;10.13;5.70;;;26.80;98.50;;;;;;20909631;28;20029;-54
2021/07/31 08:43:34;;;;;;;9.00;5.68;;;26.90;97.30;;;;;;20907391;28;20025;-51
2021/07/31 08:53:36;;;;;;;6.32;5.55;;;26.80;98.20;;;;;;20908159;28;20033;-54
2021/07/31 09:03:51;;;;;;;6.65;4.90;;;26.70;96.60;;;;;;20907461;28;20044;-56
2021/07/31 09:14:16;;;;;;;11.70;6.27;;;26.60;95.30;;;;;;20899132;28;20090;-51
2021/07/31 09:24:22;;;;;;;7.07;5.00;;;27.70;97.10;;;;;;20906468;28;20044;-54
2021/07/31 09:34:46;;;;;;;5.30;4.72;;;27.70;96.90;;;;;;20908333;28;20033;-55
2021/07/31 09:44:48;;;;;;;8.27;6.53;;;28.20;96.30;;;;;;20904747;28;20029;-56
2021/07/31 09:54:51;;;;;;;6.97;5.90;;;28.60;94.80;;;;;;20903595;28;20145;-53
2021/07/31 10:04:54;;;;;;;8.43;5.78;;;28.40;96.70;;;;;;20908178;28;20135;-55
2021/07/31 10:14:57;;;;;;;6.90;6.13;;;28.70;95.70;;;;;;20903224;28;20029;-52
2021/07/31 10:25:03;;;;;;;9.02;6.68;;;29.60;94.40;;;;;;20901606;28;20041;-52
2021/07/31 10:35:27;;;;;;;12.52;8.25;;;29.70;95.40;;;;;;20902569;28;20037;-54
2021/07/31 10:45:34;;;;;;;14.73;8.48;;;29.30;94.40;;;;;;20911044;28;20033;-56
2021/07/31 10:55:39;;;;;;;11.32;8.05;;;29.40;96.20;;;;;;20899494;28;20037;-55
2021/07/31 11:05:51;;;;;;;11.88;7.93;;;29.50;95.30;;;;;;20871183;28;20060;-54
2021/07/31 11:16:19;;;;;;;12.32;8.02;;;29.30;95.20;;;;;;20873401;28;20091;-56
2021/07/31 11:26:46;;;;;;;11.13;8.02;;;27.50;94.90;;;;;;20873541;28;20040;-56
2021/07/31 11:36:58;;;;;;;11.30;7.87;;;26.10;96.70;;;;;;20879645;28;20033;-56
2021/07/31 11:47:00;;;;;;;9.75;6.55;;;24.90;98.80;;;;;;20866520;28;20040;-54
2021/07/31 11:57:03;;;;;;;7.63;5.85;;;25.90;99.10;;;;;;20914802;28;20098;-53
2021/07/31 12:07:25;;;;;;;7.90;5.95;;;27.30;98.10;;;;;;20911726;28;20029;-52
2021/07/31 12:17:28;;;;;;;10.27;7.47;;;28.10;95.30;;;;;;20910559;28;20033;-51
2021/07/31 12:27:54;;;;;;;16.83;11.10;;;27.60;96.30;;;;;;20909597;28;20028;-51
2021/07/31 12:38:01;;;;;;;16.25;9.93;;;27.10;96.30;;;;;;20903859;28;20049;-53
2021/07/31 12:48:04;;;;;;;13.27;9.27;;;27.70;97.50;;;;;;20904932;28;20037;-54
2021/07/31 12:58:06;;;;;;;10.85;8.98;;;28.30;96.40;;;;;;20905910;28;20079;-55
2021/07/31 13:08:09;;;;;;;11.48;9.07;;;29.40;94.50;;;;;;20902743;28;20083;-52
2021/07/31 13:18:18;;;;;;;9.88;8.57;;;29.90;93.80;;;;;;20905431;28;20072;-56
2021/07/31 13:28:19;;;;;;;8.15;7.20;;;30.10;93.20;;;;;;20907974;28;20052;-55
2021/07/31 13:38:21;;;;;;;8.35;7.38;;;29.50;93.30;;;;;;20904337;28;20037;-56
2021/07/31 13:48:22;;;;;;;8.90;7.38;;;28.20;94.50;;;;;;20904667;28;20074;-55
2021/07/31 13:58:24;;;;;;;7.60;6.78;;;28.70;93.00;;;;;;20902269;28;20445;-56
2021/07/31 14:08:26;;;;;;;11.00;8.23;;;28.60;93.10;;;;;;20902127;28;20029;-52
2021/07/31 14:18:28;;;;;;;11.43;8.65;;;28.40;93.20;;;;;;20902026;28;20079;-53
2021/07/31 14:28:30;;;;;;;9.30;7.22;;;27.40;94.90;;;;;;20902048;28;20190;-51
2021/07/31 14:38:32;;;;;;;9.55;8.35;;;27.10;95.00;;;;;;20911912;28;20433;-53
2021/07/31 14:48:33;;;;;;;9.30;8.30;;;27.00;95.90;;;;;;20917419;28;20036;-55
2021/07/31 14:58:35;;;;;;;11.13;7.60;;;26.80;96.40;;;;;;20915975;28;20040;-56
2021/07/31 15:08:37;;;;;;;9.13;7.20;;;26.40;96.10;;;;;;20915535;28;20055;-56
2021/07/31 15:18:39;;;;;;;10.07;8.07;;;25.40;97.40;;;;;;20913169;28;20056;-56
2021/07/31 15:28:41;;;;;;;9.63;7.72;;;24.80;99.70;;;;;;20909643;28;20029;-56
2021/07/31 15:38:44;;;;;;;13.38;8.52;;;24.90;99.10;;;;;;20914442;28;20059;-56
2021/07/31 15:48:45;;;;;;;11.65;7.95;;;24.60;99.40;;;;;;20912712;28;20029;-56
2021/07/31 15:58:47;;;;;;;13.82;8.95;;;24.50;99.20;;;;;;20911433;28;20044;-54
2021/07/31 16:08:53;;;;;;;10.15;7.68;;;24.20;99.60;;;;;;20910969;28;20079;-52
2021/07/31 16:18:56;;;;;;;12.45;8.00;;;23.90;99.90;;;;;;20910357;28;20037;-54
2021/07/31 16:28:57;;;;;;;8.23;6.55;;;23.80;99.90;;;;;;20909288;28;20074;-54
2021/07/31 16:39:00;;;;;;;9.88;6.78;;;23.40;99.90;;;;;;20908978;28;20032;-53
2021/07/31 16:49:03;;;;;;;9.80;6.75;;;22.90;99.90;;;;;;20005245;28;10001538;-54
2021/07/31 16:59:06;;;;;;;9.35;5.78;;;22.40;99.90;;;;;;20742388;28;20045;-55
2021/07/31 17:09:08;;;;;;;7.45;4.40;;;22.10;99.90;;;;;;20791463;28;20045;-52
2021/07/31 17:19:11;;;;;;;8.38;3.88;;;21.70;99.90;;;;;;20822793;28;20411;-54
2021/07/31 17:29:13;;;;;;;7.78;4.50;;;21.40;99.90;;;;;;20794283;28;20030;-52
2021/07/31 17:39:17;;;;;;;8.35;4.57;;;21.10;98.00;;;;;;20741507;28;20029;-55
2021/07/31 17:49:19;;;;;;;11.65;5.10;;;21.00;99.80;;;;;;20741163;28;20084;-56
2021/07/31 17:59:20;;;;;;;11.32;6.03;;;20.70;99.90;;;;;;20758267;28;20093;-54
2021/07/31 18:09:22;;;;;;;8.23;5.97;;;20.40;99.90;;;;;;20821388;28;20037;-57
2021/07/31 18:19:23;;;;;;;11.25;6.43;;;19.90;99.90;;;;;;20821307;28;20030;-57
2021/07/31 18:29:25;;;;;;;9.80;6.97;;;19.50;99.90;;;;;;20821083;28;20033;-56
2021/07/31 18:39:27;;;;;;;16.33;6.85;;;19.40;99.90;;;;;;20835579;28;20049;-52
2021/07/31 18:49:30;;;;;;;11.05;6.40;;;19.50;99.90;;;;;;20820323;28;20079;-52
2021/07/31 18:59:34;;;;;;;8.95;5.80;;;19.50;99.90;;;;;;20784449;28;20053;-54
2021/07/31 19:09:35;;;;;;;11.93;5.93;;;19.30;99.90;;;;;;20737779;28;20041;-55
2021/07/31 19:19:37;;;;;;;7.55;4.88;;;18.90;99.90;;;;;;20738231;28;20392;-55
2021/07/31 19:29:39;;;;;;;9.07;5.72;;;18.80;99.90;;;;;;20751608;28;20037;-54
2021/07/31 19:39:41;;;;;;;9.93;5.95;;;18.60;99.90;;;;;;20750624;28;20076;-50
2021/07/31 19:49:43;;;;;;;8.77;6.13;;;18.30;99.90;;;;;;20759157;28;20538;-54
2021/07/31 19:59:46;;;;;;;11.35;6.22;;;18.10;99.90;;;;;;20759090;28;20369;-55
2021/07/31 20:09:47;;;;;;;11.15;6.95;;;17.80;99.90;;;;;;20746756;28;20050;-49
2021/07/31 20:19:49;;;;;;;11.25;7.25;;;17.70;99.90;;;;;;20745265;28;20426;-54
2021/07/31 20:29:51;;;;;;;9.88;6.85;;;17.60;99.90;;;;;;20743862;28;20040;-49
2021/07/31 20:39:52;;;;;;;7.07;6.05;;;17.60;99.90;;;;;;20745501;28;20088;-54
2021/07/31 20:49:55;;;;;;;13.80;6.60;;;17.80;99.90;;;;;;20744915;28;20087;-55
2021/07/31 20:59:57;;;;;;;13.73;7.18;;;18.00;99.90;;;;;;20742803;28;20042;-54
2021/07/31 21:10:00;;;;;;;14.63;7.40;;;18.20;99.90;;;;;;20798716;28;20029;-54
2021/07/31 21:20:04;;;;;;;13.32;7.72;;;18.40;99.90;;;;;;20824612;28;20037;-55
2021/07/31 21:30:07;;;;;;;25.30;8.75;;;18.50;99.90;;;;;;20787071;28;20452;-53
2021/07/31 21:40:09;;;;;;;14.57;10.40;;;18.60;99.90;;;;;;20741699;28;20088;-52
2021/07/31 21:50:11;;;;;;;15.82;10.18;;;18.60;99.90;;;;;;20740440;28;20045;-49
2021/07/31 22:00:33;;;;;;;12.43;8.80;;;18.60;99.90;;;;;;20765578;28;20045;-53
2021/07/31 22:10:36;;;;;;;8.73;6.85;;;18.70;99.90;;;;;;20821930;28;20037;-54
2021/07/31 22:20:38;;;;;;;12.70;7.80;;;18.80;99.90;;;;;;20819726;28;20573;-55
2021/07/31 22:30:40;;;;;;;8.30;6.32;;;18.30;99.90;;;;;;20819921;28;20033;-56
2021/07/31 22:40:43;;;;;;;11.48;6.40;;;17.80;99.90;;;;;;20820739;28;20037;-51
2021/07/31 22:50:48;;;;;;;7.88;5.90;;;17.70;99.90;;;;;;20820052;28;20025;-51
2021/07/31 23:00:51;;;;;;;8.88;5.85;;;17.70;99.90;;;;;;20782560;28;20392;-54
2021/07/31 23:10:53;;;;;;;7.82;5.10;;;17.90;99.90;;;;;;20753027;28;20091;-53
2021/07/31 23:20:54;;;;;;;8.80;5.93;;;17.90;99.90;;;;;;20751106;28;20037;-51
2021/07/31 23:30:56;;;;;;;7.45;5.75;;;17.90;99.90;;;;;;20753126;28;20372;-57
2021/07/31 23:40:59;;;;;;;7.32;5.28;;;17.90;99.90;;;;;;20750917;28;20092;-54
2021/07/31 23:51:01;;;;;;;7.55;5.75;;;18.00;99.90;;;;;;20748775;28;20042;-56
